Time;durP1;ratioP1;P1;durP2;ratioP2;P2;SDS_P1;SDS_P2;PMS_P1;PMS_P2;Temp;Humidity;BMP_temperature;BMP_pressure;BME280_temperature;BME280_humidity;BME280_pressure;Samples;Min_cycle;Max_cycle;Signal;HPM_P1;HPM_P2
2021/07/23 00:00:52;;;;;;;;;13.25;13.25;;;;;26.75;41.54;101227.06;5072858;28;45756;-55
2021/07/23 00:03:18;;;;;;;;;17.00;14.25;;;;;26.72;41.70;101221.88;5074112;27;45403;-55
2021/07/23 00:05:43;;;;;;;;;14.25;14.25;;;;;26.69;42.34;101212.97;5078079;27;45524;-52
2021/07/23 00:08:09;;;;;;;;;16.25;16.25;;;;;26.67;42.44;101223.09;5080387;27;46817;-55
2021/07/23 00:10:35;;;;;;;;;14.25;14.00;;;;;26.64;42.03;101225.19;5080977;27;45543;-54
2021/07/23 00:13:00;;;;;;;;;11.50;11.50;;;;;26.62;42.56;101219.00;5063255;27;45766;-56
2021/07/23 00:15:27;;;;;;;;;11.00;11.00;;;;;26.58;42.33;101220.25;5081728;27;45435;-56
2021/07/23 00:17:52;;;;;;;;;10.25;10.25;;;;;26.56;42.58;101216.81;5080796;27;48481;-55
2021/07/23 00:20:18;;;;;;;;;12.25;11.50;;;;;26.51;42.05;101210.84;5081018;27;45752;-55
2021/07/23 00:22:43;;;;;;;;;13.75;13.75;;;;;26.49;42.21;101210.09;5080832;27;45259;-55
2021/07/23 00:25:09;;;;;;;;;11.00;11.00;;;;;26.45;42.49;101211.34;5081333;27;45294;-55
2021/07/23 00:27:35;;;;;;;;;12.50;12.50;;;;;26.39;42.54;101209.97;5062570;27;47046;-54
2021/07/23 00:30:01;;;;;;;;;15.25;11.50;;;;;26.36;43.14;101205.66;5081517;27;45375;-54
2021/07/23 00:32:26;;;;;;;;;13.75;12.75;;;;;26.30;42.79;101206.13;5080913;27;45258;-55
2021/07/23 00:34:52;;;;;;;;;11.50;11.50;;;;;26.27;43.04;101194.59;5081314;27;45343;-54
2021/07/23 00:37:17;;;;;;;;;12.50;12.50;;;;;26.23;42.96;101202.16;5080046;27;47280;-56
2021/07/23 00:39:43;;;;;;;;;15.50;13.75;;;;;26.20;43.47;101198.81;5069490;27;45772;-56
2021/07/23 00:42:08;;;;;;;;;11.50;11.50;;;;;26.17;43.13;101199.03;5062631;27;46039;-57
2021/07/23 00:44:35;;;;;;;;;12.25;10.75;;;;;26.14;43.01;101197.44;5080729;27;45380;-57
2021/07/23 00:47:01;;;;;;;;;16.25;13.75;;;;;26.10;43.28;101196.81;5074763;27;45562;-57
2021/07/23 00:49:26;;;;;;;;;13.75;12.00;;;;;26.06;44.00;101195.34;5048805;28;45433;-55
2021/07/23 00:51:52;;;;;;;;;16.00;13.75;;;;;26.04;43.62;101199.13;5062426;27;45410;-53
2021/07/23 00:54:19;;;;;;;;;17.25;15.25;;;;;26.02;43.53;101196.53;5080786;27;45236;-54
2021/07/23 00:56:45;;;;;;;;;12.50;10.75;;;;;26.00;43.71;101181.34;5079904;27;47080;-56
2021/07/23 00:59:11;;;;;;;;;11.75;11.75;;;;;25.97;43.56;101176.16;5062043;28;45369;-54
2021/07/23 01:01:37;;;;;;;;;13.00;11.50;;;;;25.96;43.65;101177.13;5060943;27;45389;-54
2021/07/23 01:04:03;;;;;;;;;12.25;12.00;;;;;25.93;43.74;101182.81;5062550;28;45465;-54
2021/07/23 01:06:29;;;;;;;;;14.00;13.25;;;;;25.89;44.11;101186.75;5080329;27;45723;-55
2021/07/23 01:08:55;;;;;;;;;14.25;13.25;;;;;25.86;44.41;101167.97;5079783;27;45360;-55
2021/07/23 01:11:23;;;;;;;;;12.50;12.50;;;;;25.83;44.32;101173.66;5079865;27;45254;-55
2021/07/23 01:13:49;;;;;;;;;10.50;10.50;;;;;25.79;44.21;101167.56;5081036;27;45480;-53
2021/07/23 01:16:15;;;;;;;;;16.00;12.25;;;;;25.75;44.70;101168.81;5080145;27;46148;-55
2021/07/23 01:18:42;;;;;;;;;12.50;12.25;;;;;25.71;44.41;101156.44;5079252;27;45861;-55
2021/07/23 01:21:08;;;;;;;;;14.75;14.25;;;;;25.69;44.51;101161.16;5080471;27;45419;-55
2021/07/23 01:23:35;;;;;;;;;12.33;12.33;;;;;25.66;44.94;101161.31;5080256;27;45503;-55
2021/07/23 01:26:02;;;;;;;;;16.75;13.50;;;;;25.63;44.45;101156.13;5061849;28;45508;-57
2021/07/23 01:28:30;;;;;;;;;10.00;10.00;;;;;25.60;45.10;101162.69;5080004;27;45310;-55
2021/07/23 01:30:58;;;;;;;;;15.00;14.00;;;;;25.58;45.16;101163.78;5079754;27;45319;-55
2021/07/23 01:33:24;;;;;;;;;13.25;12.25;;;;;25.55;45.37;101159.47;5079926;27;45397;-56
2021/07/23 01:35:50;;;;;;;;;13.50;12.00;;;;;25.52;45.23;101165.13;5061759;28;47031;-55
2021/07/23 01:38:17;;;;;;;;;14.50;13.00;;;;;25.50;44.92;101158.94;5070988;27;45290;-55
2021/07/23 01:40:46;;;;;;;;;12.50;12.25;;;;;25.46;45.41;101158.31;5076124;27;45357;-55
2021/07/23 01:43:14;;;;;;;;;12.25;12.25;;;;;25.43;45.82;101166.72;5061920;28;45276;-55
2021/07/23 01:45:40;;;;;;;;;10.75;10.75;;;;;25.40;45.53;101161.50;5061073;27;47547;-56
2021/07/23 01:48:05;;;;;;;;;14.25;11.00;;;;;25.36;45.75;101151.00;5078154;28;45450;-55
2021/07/23 01:50:31;;;;;;;;;17.00;13.75;;;;;25.34;45.83;101156.53;5061811;27;45454;-54
2021/07/23 01:52:56;;;;;;;;;15.00;12.75;;;;;25.32;45.81;101150.38;5079648;27;45314;-55
2021/07/23 01:55:22;;;;;;;;;18.25;17.00;;;;;25.29;45.81;101145.16;5061108;27;47142;-55
2021/07/23 01:57:47;;;;;;;;;13.25;12.25;;;;;25.27;45.94;101141.69;5079880;27;45465;-55
2021/07/23 02:00:13;;;;;;;;;13.00;11.75;;;;;25.24;45.93;101145.50;5061441;27;45315;-55
2021/07/23 02:02:39;;;;;;;;;11.50;11.00;;;;;25.24;45.81;101150.94;5070594;28;45286;-56
2021/07/23 02:05:05;;;;;;;;;12.50;12.50;;;;;25.24;45.82;101147.34;5061291;28;46893;-55
2021/07/23 02:07:31;;;;;;;;;16.75;14.25;;;;;25.23;45.89;101142.91;5060979;28;45769;-55
2021/07/23 02:09:57;;;;;;;;;10.75;10.50;;;;;25.20;45.98;101148.59;5079378;27;45601;-52
2021/07/23 02:12:22;;;;;;;;;15.25;12.50;;;;;25.17;46.27;101138.81;5080005;27;45382;-55
2021/07/23 02:14:48;;;;;;;;;12.50;11.75;;;;;25.16;46.24;101141.66;5079354;27;46258;-54
2021/07/23 02:17:13;;;;;;;;;17.50;15.50;;;;;25.14;46.25;101138.16;5079672;28;46055;-55
2021/07/23 02:19:40;;;;;;;;;15.50;15.50;;;;;25.10;46.58;101134.81;5061175;27;45306;-56
2021/07/23 02:22:06;;;;;;;;;12.00;12.00;;;;;25.07;46.26;101135.06;5079578;27;45393;-55
2021/07/23 02:24:31;;;;;;;;;15.00;15.00;;;;;25.05;46.39;101137.03;5078801;27;48251;-55
2021/07/23 02:26:57;;;;;;;;;12.75;12.25;;;;;25.04;46.55;101139.88;5079117;27;45598;-54
2021/07/23 02:29:23;;;;;;;;;15.50;14.00;;;;;25.02;46.88;101139.97;5079032;27;45434;-55
2021/07/23 02:31:48;;;;;;;;;13.25;13.25;;;;;25.00;47.07;101135.59;5079771;27;45522;-55
2021/07/23 02:34:14;;;;;;;;;15.50;13.75;;;;;24.97;46.86;101136.69;5078836;27;47886;-55
2021/07/23 02:36:40;;;;;;;;;17.25;14.75;;;;;24.95;46.79;101142.25;5079097;28;45669;-55
2021/07/23 02:39:05;;;;;;;;;10.50;10.00;;;;;24.95;46.87;101138.69;5065658;27;45295;-54
2021/07/23 02:41:31;;;;;;;;;17.50;14.00;;;;;24.92;47.05;101131.63;5079644;27;45331;-54
2021/07/23 02:43:56;;;;;;;;;13.50;13.25;;;;;24.89;47.03;101125.53;5078959;27;46796;-55
2021/07/23 02:46:22;;;;;;;;;13.25;11.25;;;;;24.86;47.41;101133.94;5060700;28;45741;-55
2021/07/23 02:48:47;;;;;;;;;12.25;12.25;;;;;24.83;47.11;101132.31;5076973;27;45493;-55
2021/07/23 02:51:13;;;;;;;;;15.00;14.00;;;;;24.82;47.37;101121.56;5079455;27;45283;-57
2021/07/23 02:53:39;;;;;;;;;14.25;14.25;;;;;24.80;47.39;101132.56;5078969;27;47776;-57
2021/07/23 02:56:04;;;;;;;;;16.25;15.25;;;;;24.79;47.49;101130.81;5079816;28;45579;-55
2021/07/23 02:58:30;;;;;;;;;17.00;17.00;;;;;24.78;47.75;101122.78;5062067;27;45394;-54
2021/07/23 03:00:56;;;;;;;;;12.00;12.00;;;;;24.76;47.34;101122.00;5061813;28;45441;-55
2021/07/23 03:03:21;;;;;;;;;18.00;17.00;;;;;24.74;47.60;101113.13;5060850;27;47402;-55
2021/07/23 03:05:47;;;;;;;;;13.75;13.75;;;;;24.71;47.44;101105.22;5078874;27;45669;-55
2021/07/23 03:08:12;;;;;;;;;16.00;15.75;;;;;24.70;47.60;101108.91;5061315;27;45335;-55
2021/07/23 03:10:38;;;;;;;;;14.00;13.50;;;;;24.67;47.59;101109.16;5079905;27;45430;-55
2021/07/23 03:13:04;;;;;;;;;12.00;12.00;;;;;24.65;47.81;101107.41;5042018;28;47555;-55
2021/07/23 03:15:29;;;;;;;;;15.50;14.25;;;;;24.63;47.83;101103.06;5078564;28;45374;-56
2021/07/23 03:17:54;;;;;;;;;15.25;15.25;;;;;24.60;47.84;101106.88;5078856;27;45305;-53
2021/07/23 03:20:20;;;;;;;;;14.75;13.00;;;;;24.58;47.94;101103.41;5079057;27;45409;-56
2021/07/23 03:22:45;;;;;;;;;18.00;18.00;;;;;24.58;48.28;101105.25;5078419;27;46152;-53
2021/07/23 03:25:11;;;;;;;;;16.25;15.75;;;;;24.57;47.95;101107.13;5078612;28;45387;-55
2021/07/23 03:27:38;;;;;;;;;18.25;18.00;;;;;24.56;48.15;101115.38;5060440;28;45386;-55
2021/07/23 03:30:05;;;;;;;;;15.00;15.00;;;;;24.53;48.33;101105.63;5060586;28;45441;-55
2021/07/23 03:32:31;;;;;;;;;16.50;16.50;;;;;24.51;48.22;101102.13;5042350;27;46306;-55
2021/07/23 03:34:56;;;;;;;;;19.50;18.50;;;;;24.50;48.28;101103.09;5060206;28;45324;-55
2021/07/23 03:37:22;;;;;;;;;15.00;13.00;;;;;24.49;48.35;101103.22;5076936;27;45430;-55
2021/07/23 03:39:47;;;;;;;;;17.75;17.00;;;;;24.49;48.08;101105.94;5049328;28;45394;-54
2021/07/23 03:42:13;;;;;;;;;17.75;16.25;;;;;24.46;48.29;101111.59;5080018;27;47343;-54
2021/07/23 03:44:38;;;;;;;;;15.00;14.00;;;;;24.44;48.60;101102.72;5081929;27;45308;-56
2021/07/23 03:47:04;;;;;;;;;22.75;21.00;;;;;24.42;48.61;101097.41;5076058;27;45399;-55
2021/07/23 03:49:29;;;;;;;;;16.75;14.75;;;;;24.44;48.52;101100.00;5082185;27;45220;-53
2021/07/23 03:51:58;;;;;;;;;18.00;16.00;;;;;24.43;48.60;101099.13;5063649;27;45292;-55
2021/07/23 03:54:24;;;;;;;;;17.75;17.75;;;;;24.41;48.80;101090.25;5081925;27;45780;-55
2021/07/23 03:56:49;;;;;;;;;15.50;14.00;;;;;24.37;48.66;101077.88;5047204;27;45459;-55
2021/07/23 03:59:15;;;;;;;;;18.50;16.75;;;;;24.34;48.72;101067.25;5082433;27;45287;-56
2021/07/23 04:01:40;;;;;;;;;16.50;16.50;;;;;24.30;48.64;101058.47;5063679;27;48213;-56
2021/07/23 04:04:06;;;;;;;;;18.25;16.75;;;;;24.28;48.80;101054.13;5081751;27;46490;-54
2021/07/23 04:06:31;;;;;;;;;16.75;14.00;;;;;24.25;48.89;101048.88;5063520;27;45589;-55
2021/07/23 04:08:57;;;;;;;;;18.75;17.25;;;;;24.21;48.97;101044.69;5081528;27;45574;-56
2021/07/23 04:11:28;;;;;;;;;18.00;18.00;;;;;24.18;49.08;101037.66;5080342;27;48272;-56
2021/07/23 04:13:54;;;;;;;;;18.50;17.00;;;;;24.18;49.13;101036.78;5071963;27;45948;-56
2021/07/23 04:16:19;;;;;;;;;20.00;18.75;;;;;24.16;49.59;101047.75;5063249;27;45414;-56
2021/07/23 04:18:45;;;;;;;;;16.75;16.00;;;;;24.12;49.18;101035.38;5081640;27;45701;-57
2021/07/23 04:21:10;;;;;;;;;21.50;19.25;;;;;24.12;49.29;101043.50;5081240;27;47137;-55
2021/07/23 04:23:36;;;;;;;;;18.25;18.00;;;;;24.07;49.12;101045.69;5080992;27;45317;-55
2021/07/23 04:26:01;;;;;;;;;17.25;17.25;;;;;24.06;49.50;101047.53;5081562;27;45372;-55
2021/07/23 04:28:27;;;;;;;;;18.50;17.00;;;;;24.03;49.43;101044.19;5081713;27;46137;-56
2021/07/23 04:30:52;;;;;;;;;18.75;18.50;;;;;24.02;49.36;101046.03;5080903;27;46352;-56
2021/07/23 04:33:18;;;;;;;;;18.75;18.25;;;;;24.02;49.64;101043.34;5062880;28;45404;-55
2021/07/23 04:35:43;;;;;;;;;21.50;17.25;;;;;24.03;49.63;101044.19;5081171;27;45452;-56
2021/07/23 04:38:08;;;;;;;;;18.00;17.00;;;;;24.04;49.61;101035.09;5073170;27;45224;-54
2021/07/23 04:40:36;;;;;;;;;22.25;19.25;;;;;24.01;49.74;101038.00;5076818;27;48012;-56
2021/07/23 04:43:01;;;;;;;;;18.00;17.00;;;;;23.98;49.57;101032.81;5081165;27;45847;-56
2021/07/23 04:45:27;;;;;;;;;22.00;19.25;;;;;23.98;49.71;101032.81;5058427;27;45386;-56
2021/07/23 04:47:52;;;;;;;;;19.00;18.00;;;;;23.95;49.95;101038.44;5061705;28;45592;-57
2021/07/23 04:50:18;;;;;;;;;21.25;18.50;;;;;23.93;49.71;101032.28;5081071;27;47011;-56
2021/07/23 04:52:43;;;;;;;;;17.75;17.75;;;;;23.92;49.93;101031.41;5080214;27;46257;-55
2021/07/23 04:55:12;;;;;;;;;17.25;16.75;;;;;23.93;49.80;101030.44;5062342;27;46464;-55
2021/07/23 04:57:43;;;;;;;;;18.00;18.00;;;;;23.92;50.08;101034.13;5063756;28;45596;-54
2021/07/23 05:00:09;;;;;;;;;20.00;20.00;;;;;23.94;49.80;101034.00;5062549;27;47252;-55
2021/07/23 05:02:35;;;;;;;;;22.75;22.00;;;;;23.94;49.79;101034.00;5053530;28;45407;-56
2021/07/23 05:05:01;;;;;;;;;17.25;15.75;;;;;23.92;50.11;101033.25;5080723;27;45346;-56
2021/07/23 05:07:26;;;;;;;;;18.00;17.50;;;;;23.92;50.16;101041.41;5080739;27;45289;-55
2021/07/23 05:09:51;;;;;;;;;18.75;18.75;;;;;23.92;50.05;101042.25;5080563;27;47514;-56
2021/07/23 05:12:17;;;;;;;;;19.50;19.50;;;;;23.89;50.14;101045.19;5080955;28;45648;-55
2021/07/23 05:14:43;;;;;;;;;19.25;17.50;;;;;23.89;50.05;101045.19;5080325;27;45544;-56
2021/07/23 05:17:09;;;;;;;;;19.00;19.00;;;;;23.90;49.97;101048.78;5080799;27;45502;-56
2021/07/23 05:19:36;;;;;;;;;19.75;18.25;;;;;23.90;50.04;101036.09;5080362;27;46994;-55
2021/07/23 05:22:01;;;;;;;;;18.25;18.25;;;;;23.95;50.28;101041.16;5080493;27;45628;-57
2021/07/23 05:24:27;;;;;;;;;17.50;17.50;;;;;23.97;50.14;101037.34;5080479;27;45436;-55
2021/07/23 05:26:53;;;;;;;;;20.75;17.50;;;;;23.98;50.19;101036.38;5062665;28;45465;-56
2021/07/23 05:29:18;;;;;;;;;19.25;18.25;;;;;23.98;49.84;101032.81;5080492;27;48196;-56
2021/07/23 05:31:44;;;;;;;;;23.50;21.50;;;;;23.97;49.93;101034.66;5080702;27;45621;-57
2021/07/23 05:34:09;;;;;;;;;21.00;20.50;;;;;23.95;50.09;101025.75;5080499;27;45760;-56
2021/07/23 05:36:35;;;;;;;;;22.25;19.75;;;;;23.97;50.06;101033.78;5062156;28;45343;-55
2021/07/23 05:39:01;;;;;;;;;21.50;21.25;;;;;23.99;49.88;101031.81;5063605;27;47657;-56
2021/07/23 05:41:26;;;;;;;;;25.25;22.00;;;;;23.99;50.29;101024.56;5080661;27;45654;-56
2021/07/23 05:43:52;;;;;;;;;18.50;18.50;;;;;24.01;50.25;101029.84;5062386;27;45366;-57
2021/07/23 05:46:17;;;;;;;;;23.75;23.00;;;;;24.02;49.79;101024.34;5076109;27;45338;-55
2021/07/23 05:48:42;;;;;;;;;18.25;18.00;;;;;24.02;49.79;101028.91;5077672;27;47698;-55
2021/07/23 05:51:10;;;;;;;;;21.50;20.75;;;;;24.02;50.17;101028.91;5080190;27;45321;-57
2021/07/23 05:53:36;;;;;;;;;23.00;21.75;;;;;23.98;49.77;101021.97;5079724;27;45485;-56
2021/07/23 05:56:02;;;;;;;;;27.75;27.00;;;;;23.94;49.76;101018.63;5080369;27;45521;-56
2021/07/23 05:58:28;;;;;;;;;20.75;18.25;;;;;23.96;50.17;101015.78;5080082;27;47848;-56
2021/07/23 06:00:55;;;;;;;;;17.75;17.25;;;;;23.99;49.88;101019.13;5074309;27;45398;-57
2021/07/23 06:03:21;;;;;;;;;19.25;19.25;;;;;24.02;50.05;101018.06;5076384;27;45524;-58
2021/07/23 06:05:46;;;;;;;;;22.25;20.00;;;;;24.05;50.08;101007.84;5080030;27;45428;-55
2021/07/23 06:08:12;;;;;;;;;21.25;20.25;;;;;24.07;49.63;101005.88;5061492;28;46087;-57
2021/07/23 06:10:37;;;;;;;;;21.50;21.50;;;;;24.09;49.54;101005.78;5088234;27;46020;-56
2021/07/23 06:13:03;;;;;;;;;21.25;21.25;;;;;24.11;49.77;101001.09;5064623;27;45432;-57
2021/07/23 06:15:28;;;;;;;;;21.00;20.00;;;;;24.15;49.74;100996.34;5080212;27;45264;-56
2021/07/23 06:17:54;;;;;;;;;23.25;22.25;;;;;24.18;49.75;100988.84;5079829;27;48371;-56
2021/07/23 06:20:20;;;;;;;;;23.00;20.50;;;;;24.19;49.47;100982.44;5080112;27;45545;-56
2021/07/23 06:22:45;;;;;;;;;21.75;20.00;;;;;24.20;49.39;100984.16;5078951;27;45393;-55
2021/07/23 06:25:11;;;;;;;;;23.50;22.00;;;;;24.21;49.48;100990.44;5080348;27;45346;-56
2021/07/23 06:27:36;;;;;;;;;21.75;20.50;;;;;24.19;49.46;100987.84;5042838;28;47179;-56
2021/07/23 06:30:03;;;;;;;;;22.75;20.50;;;;;24.19;49.30;100981.56;5079950;27;45587;-57
2021/07/23 06:32:31;;;;;;;;;19.00;19.00;;;;;24.22;49.34;100984.03;5079376;27;45330;-56
2021/07/23 06:34:57;;;;;;;;;24.25;21.75;;;;;24.22;49.39;100975.91;5079686;27;45291;-57
2021/07/23 06:37:23;;;;;;;;;21.50;21.25;;;;;24.22;49.60;100981.31;5077245;27;48206;-57
2021/07/23 06:39:50;;;;;;;;;22.00;19.50;;;;;24.22;49.47;100976.78;5068027;27;45338;-57
2021/07/23 06:42:21;;;;;;;;;21.75;20.75;;;;;24.24;49.66;100980.22;5079292;27;45340;-57
2021/07/23 06:44:50;;;;;;;;;21.00;19.00;;;;;24.26;49.43;100971.97;5078743;27;45348;-58
2021/07/23 06:47:16;;;;;;;;;25.25;22.75;;;;;24.26;49.53;100969.25;5057096;28;47447;-57
2021/07/23 06:49:41;;;;;;;;;20.00;20.00;;;;;24.26;49.64;100963.84;5079208;27;45824;-57
2021/07/23 06:52:07;;;;;;;;;18.75;17.25;;;;;24.29;49.58;100971.75;5079060;27;45618;-56
2021/07/23 06:54:34;;;;;;;;;19.50;19.25;;;;;24.33;49.72;100965.16;5061631;28;45722;-56
2021/07/23 06:57:03;;;;;;;;;21.25;21.25;;;;;24.36;49.45;100970.34;5060601;28;48587;-59
2021/07/23 06:59:35;;;;;;;;;22.75;21.00;;;;;24.41;49.49;100967.31;5079321;27;45263;-59
2021/07/23 07:02:02;;;;;;;;;22.25;21.25;;;;;24.44;49.46;100973.34;5068996;27;45390;-59
2021/07/23 07:04:28;;;;;;;;;21.00;21.00;;;;;24.47;49.08;100967.69;5079365;27;45384;-58
2021/07/23 07:06:58;;;;;;;;;21.75;20.00;;;;;24.51;49.24;100966.47;5060680;28;48526;-58
2021/07/23 07:09:25;;;;;;;;;19.75;19.75;;;;;24.53;49.04;100955.53;5078916;27;45508;-58
2021/07/23 07:11:51;;;;;;;;;26.25;24.00;;;;;24.55;48.82;100959.84;5078960;27;45484;-58
2021/07/23 07:14:16;;;;;;;;;25.00;24.50;;;;;24.58;49.24;100961.44;5079196;28;45296;-57
2021/07/23 07:16:42;;;;;;;;;18.50;18.50;;;;;24.62;49.08;100957.50;5059828;28;47337;-59
2021/07/23 07:19:08;;;;;;;;;22.25;20.00;;;;;24.66;49.11;100950.88;5061071;28;46016;-57
2021/07/23 07:21:33;;;;;;;;;22.25;21.00;;;;;24.67;48.67;100947.19;5078622;27;45690;-58
2021/07/23 07:24:00;;;;;;;;;22.25;22.00;;;;;24.69;48.73;100941.63;5079047;28;45212;-58
2021/07/23 07:26:28;;;;;;;;;24.50;22.25;;;;;24.73;48.80;100949.41;5078474;27;46877;-58
2021/07/23 07:28:55;;;;;;;;;19.75;19.75;;;;;24.76;48.68;100945.59;5060118;27;45847;-59
2021/07/23 07:31:21;;;;;;;;;19.00;18.00;;;;;24.80;48.80;100952.53;5043598;28;45769;-59
2021/07/23 07:33:46;;;;;;;;;21.50;20.75;;;;;24.83;48.49;100945.00;5078684;27;45461;-56
2021/07/23 07:36:17;;;;;;;;;21.50;21.00;;;;;24.86;48.52;100952.91;5078304;27;48159;-59
2021/07/23 07:38:44;;;;;;;;;22.25;20.00;;;;;24.89;48.75;100947.22;5066142;27;45330;-59
2021/07/23 07:41:10;;;;;;;;;23.00;21.75;;;;;24.93;48.57;100954.16;5078979;27;45424;-59
2021/07/23 07:43:35;;;;;;;;;20.25;20.25;;;;;24.97;48.40;100956.63;5079006;28;45584;-58
2021/07/23 07:46:01;;;;;;;;;22.00;21.75;;;;;25.01;48.65;100959.00;5056032;28;47683;-59
2021/07/23 07:48:26;;;;;;;;;21.50;19.75;;;;;25.05;48.41;100955.09;5077434;27;45547;-59
2021/07/23 07:50:52;;;;;;;;;23.25;21.75;;;;;25.09;48.26;100959.28;5060279;28;45360;-58
2021/07/23 07:53:17;;;;;;;;;22.50;22.25;;;;;25.13;48.29;100947.19;5078744;27;45369;-58
2021/07/23 07:55:43;;;;;;;;;21.50;20.25;;;;;25.18;48.40;100942.28;5078507;28;47208;-57
2021/07/23 07:58:08;;;;;;;;;25.25;22.75;;;;;25.21;48.08;100942.03;5060056;28;45805;-58
2021/07/23 08:00:34;;;;;;;;;21.50;21.50;;;;;25.27;47.88;100943.38;5060516;28;45302;-58
2021/07/23 08:02:59;;;;;;;;;20.00;18.00;;;;;25.32;48.03;100938.47;5078720;28;45585;-57
2021/07/23 08:05:25;;;;;;;;;20.25;20.25;;;;;25.37;47.89;100933.50;5072179;28;46197;-58
2021/07/23 08:07:56;;;;;;;;;21.00;20.50;;;;;25.42;47.43;100946.75;5078570;28;45775;-57
2021/07/23 08:10:24;;;;;;;;;26.00;21.75;;;;;25.48;47.43;100940.81;5072058;28;45289;-58
2021/07/23 08:12:50;;;;;;;;;24.75;24.75;;;;;25.52;47.51;100931.41;5072643;28;45530;-58
2021/07/23 08:15:16;;;;;;;;;21.25;20.25;;;;;25.57;47.66;100929.19;5077989;27;48706;-58
2021/07/23 08:17:42;;;;;;;;;22.75;20.00;;;;;25.64;47.57;100921.38;5077749;28;45380;-58
2021/07/23 08:20:10;;;;;;;;;22.00;21.00;;;;;25.72;48.11;100922.53;5078256;27;45338;-57
2021/07/23 08:22:35;;;;;;;;;21.00;21.00;;;;;25.79;47.66;100920.16;5077742;27;45512;-58
2021/07/23 08:25:02;;;;;;;;;24.00;22.50;;;;;25.84;47.32;100923.38;5077742;28;47074;-58
2021/07/23 08:27:28;;;;;;;;;23.00;21.00;;;;;25.87;47.36;100922.25;5060095;27;45418;-59
2021/07/23 08:29:55;;;;;;;;;19.25;18.75;;;;;25.88;47.02;100913.13;5063505;28;45378;-58
2021/07/23 08:32:21;;;;;;;;;21.00;21.00;;;;;25.92;47.17;100911.84;5081025;27;45374;-58
2021/07/23 08:34:46;;;;;;;;;21.00;20.00;;;;;25.96;47.09;100916.06;5059455;28;48435;-58
2021/07/23 08:37:12;;;;;;;;;23.75;23.25;;;;;25.99;47.20;100916.69;5075224;27;46118;-58
2021/07/23 08:39:37;;;;;;;;;21.25;21.25;;;;;26.05;46.66;100912.59;5068774;27;45310;-58
2021/07/23 08:42:26;;;;;;;;;26.50;23.50;;;;;26.10;46.93;100907.63;5081677;27;45481;-58
2021/07/23 08:44:52;;;;;;;;;25.00;24.00;;;;;26.16;47.03;100903.50;5080736;27;45532;-58
2021/07/23 08:47:18;;;;;;;;;23.75;22.75;;;;;26.20;46.77;100903.16;5079115;27;45900;-59
2021/07/23 08:49:43;;;;;;;;;26.25;22.50;;;;;26.27;46.57;100903.47;5081278;27;45288;-58
2021/07/23 08:52:09;;;;;;;;;17.00;16.50;;;;;26.36;45.93;100891.84;5081226;27;45558;-58
2021/07/23 08:54:34;;;;;;;;;26.50;24.25;;;;;26.47;46.15;100888.22;5062265;28;45779;-58
2021/07/23 08:57:00;;;;;;;;;21.25;19.25;;;;;26.56;46.17;100891.03;5080723;27;45499;-58
2021/07/23 08:59:26;;;;;;;;;22.75;22.75;;;;;26.65;45.88;100898.38;5080977;27;45414;-58
2021/07/23 09:01:59;;;;;;;;;19.50;19.50;;;;;26.75;45.23;100890.28;5071442;27;46053;-58
2021/07/23 09:04:32;;;;;;;;;18.00;17.50;;;;;26.85;45.72;100893.06;5062650;28;47489;-58
2021/07/23 09:07:25;;;;;;;;;21.25;21.25;;;;;26.97;45.51;100886.56;5062152;28;45468;-58
2021/07/23 09:09:55;;;;;;;;;21.50;21.50;;;;;27.09;44.80;100884.66;5059916;28;45475;-58
2021/07/23 09:12:21;;;;;;;;;23.00;21.75;;;;;27.19;44.79;100883.69;5080791;27;45240;-58
2021/07/23 09:14:46;;;;;;;;;22.25;20.25;;;;;27.27;45.37;100880.28;5080103;27;48390;-58
2021/07/23 09:17:12;;;;;;;;;24.00;23.00;;;;;27.33;44.34;100877.03;5081083;27;45284;-58
2021/07/23 09:19:38;;;;;;;;;23.00;21.25;;;;;27.35;44.78;100876.88;5080735;27;45410;-59
2021/07/23 09:22:05;;;;;;;;;21.25;21.00;;;;;27.36;44.61;100882.19;5081195;27;45567;-57
2021/07/23 09:24:50;;;;;;;;;20.25;20.25;;;;;27.38;44.33;100873.88;5080594;27;48140;-58
2021/07/23 09:27:36;;;;;;;;;20.25;20.25;;;;;27.42;44.08;100864.41;5081333;27;45444;-57
2021/07/23 09:30:03;;;;;;;;;18.75;17.25;;;;;27.45;43.75;100864.16;5062386;28;45361;-57
2021/07/23 09:32:28;;;;;;;;;24.00;20.00;;;;;27.50;44.57;100861.88;5080182;27;45517;-58
2021/07/23 09:35:11;;;;;;;;;19.25;19.00;;;;;27.56;44.23;100864.03;5079932;27;47362;-57
2021/07/23 09:38:06;;;;;;;;;20.50;19.50;;;;;27.64;43.86;100860.59;5076538;27;45312;-57
2021/07/23 09:40:43;;;;;;;;;19.25;19.25;;;;;27.69;43.24;100856.47;5057908;27;45503;-57
2021/07/23 09:43:09;;;;;;;;;18.25;18.25;;;;;27.72;43.57;100845.31;5062375;28;45543;-58
2021/07/23 09:45:34;;;;;;;;;18.25;18.25;;;;;27.76;43.47;100849.47;5075029;27;46877;-58
2021/07/23 09:48:13;;;;;;;;;22.00;22.00;;;;;27.82;43.04;100846.19;5078827;27;45388;-58
2021/07/23 09:50:43;;;;;;;;;22.00;21.00;;;;;27.88;43.22;100838.44;5061944;28;45441;-57
2021/07/23 09:53:15;;;;;;;;;19.00;19.00;;;;;27.97;43.26;100830.28;5080000;27;45513;-58
2021/07/23 09:55:45;;;;;;;;;22.75;22.50;;;;;28.06;43.01;100831.25;5080290;27;45393;-58
2021/07/23 09:58:21;;;;;;;;;13.25;12.25;;;;;28.17;42.18;100822.06;5080066;27;45460;-57
2021/07/23 10:00:52;;;;;;;;;20.50;20.00;;;;;28.25;42.60;100817.63;5058216;28;45434;-58
2021/07/23 10:03:20;;;;;;;;;21.25;19.00;;;;;28.35;42.11;100810.34;5057786;28;45414;-58
2021/07/23 10:06:02;;;;;;;;;19.00;18.75;;;;;28.47;41.60;100805.56;5080127;27;45770;-58
2021/07/23 10:08:32;;;;;;;;;22.00;19.50;;;;;28.54;41.73;100803.97;5079134;27;45480;-59
2021/07/23 10:11:00;;;;;;;;;17.50;17.50;;;;;28.60;41.29;100788.88;5079479;27;45429;-57
2021/07/23 10:13:29;;;;;;;;;18.75;18.25;;;;;28.67;41.31;100773.59;5079387;27;45476;-57
2021/07/23 10:15:56;;;;;;;;;19.00;19.00;;;;;28.71;41.01;100775.03;5057677;28;45475;-57
2021/07/23 10:18:23;;;;;;;;;24.00;23.00;;;;;28.73;41.01;100770.28;5078403;27;45480;-58
2021/07/23 10:20:49;;;;;;;;;27.25;22.50;;;;;28.75;40.67;100771.00;5079119;27;45469;-58
2021/07/23 10:23:23;;;;;;;;;19.50;17.75;;;;;28.76;40.39;100760.94;5079376;27;45704;-58
2021/07/23 10:25:53;;;;;;;;;20.50;20.50;;;;;28.77;40.62;100765.38;5079101;27;46858;-58
2021/07/23 10:28:54;;;;;;;;;23.00;21.00;;;;;28.78;40.95;100754.31;5079538;27;45420;-58
2021/07/23 10:31:24;;;;;;;;;17.50;17.50;;;;;28.77;41.04;100752.59;5033064;27;45299;-58
2021/07/23 10:33:56;;;;;;;;;21.50;19.25;;;;;28.79;40.31;100749.69;5078889;27;45507;-58
2021/07/23 10:36:35;;;;;;;;;20.00;19.25;;;;;28.77;40.84;100744.41;5048003;28;47053;-57
2021/07/23 10:39:06;;;;;;;;;20.50;20.50;;;;;28.75;41.08;100737.38;5066363;27;45679;-58
2021/07/23 10:41:32;;;;;;;;;19.50;19.50;;;;;28.69;40.82;100730.63;5079170;27;45455;-59
2021/07/23 10:43:58;;;;;;;;;16.00;16.00;;;;;28.64;40.83;100724.75;5077987;27;45474;-59
2021/07/23 10:46:42;;;;;;;;;22.75;21.00;;;;;28.59;40.64;100727.09;5074035;28;47082;-59
2021/07/23 10:49:08;;;;;;;;;26.00;25.00;;;;;28.54;41.32;100727.50;5060608;28;45366;-57
2021/07/23 10:51:54;;;;;;;;;27.00;21.75;;;;;28.53;41.08;100716.75;5077886;27;45666;-57
2021/07/23 10:54:21;;;;;;;;;24.75;23.50;;;;;28.51;41.47;100707.84;5066872;27;45666;-57
2021/07/23 10:56:57;;;;;;;;;22.50;22.25;;;;;28.48;41.39;100709.00;5078135;27;48196;-57
2021/07/23 10:59:38;;;;;;;;;23.75;23.75;;;;;28.48;41.41;100700.81;5078750;27;45468;-57
2021/07/23 11:02:04;;;;;;;;;21.50;21.50;;;;;28.48;41.60;100711.75;5056986;28;45628;-58
2021/07/23 11:04:31;;;;;;;;;22.50;21.50;;;;;28.47;41.87;100699.09;5070781;27;45465;-58
2021/07/23 11:07:01;;;;;;;;;24.00;21.50;;;;;28.48;41.52;100692.63;5078222;27;47967;-58
2021/07/23 11:09:36;;;;;;;;;20.75;20.00;;;;;28.46;41.79;100685.56;5060284;28;46320;-58